Time;durP1;ratioP1;P1;durP2;ratioP2;P2;SDS_P1;SDS_P2;PMS_P1;PMS_P2;Temp;Humidity;BMP_temperature;BMP_pressure;BME280_temperature;BME280_humidity;BME280_pressure;Samples;Min_cycle;Max_cycle;Signal;HPM_P1;HPM_P2
2022/01/29 00:02:17;;;;;;;11.02;4.50;;;;;;;;;;21163157;28;20051;-55
2022/01/29 00:12:19;;;;;;;9.27;3.92;;;;;;;;;;21162702;28;20054;-56
2022/01/29 00:22:21;;;;;;;7.65;4.30;;;;;;;;;;21161641;28;20056;-56
2022/01/29 00:32:23;;;;;;;13.13;4.90;;;;;;;;;;21162146;28;20052;-55
2022/01/29 00:42:26;;;;;;;7.47;3.35;;;;;;;;;;21161397;28;20136;-54
2022/01/29 00:52:28;;;;;;;8.70;4.25;;;;;;;;;;21160767;28;20132;-56
2022/01/29 01:02:29;;;;;;;10.20;4.25;;;;;;;;;;21160558;28;20411;-55
2022/01/29 01:12:32;;;;;;;9.25;4.57;;;;;;;;;;21170391;28;20043;-54
2022/01/29 01:22:34;;;;;;;7.32;4.10;;;;;;;;;;21174408;28;20052;-55
2022/01/29 01:32:37;;;;;;;9.77;4.75;;;;;;;;;;21175095;28;20127;-56
2022/01/29 01:42:39;;;;;;;9.13;4.22;;;;;;;;;;21174020;28;20085;-55
2022/01/29 01:52:41;;;;;;;12.00;4.68;;;;;;;;;;21172599;28;20608;-55
2022/01/29 02:02:44;;;;;;;10.00;5.00;;;;;;;;;;21170987;28;20059;-55
2022/01/29 02:12:51;;;;;;;5.38;3.38;;;;;;;;;;21171260;28;20411;-55
2022/01/29 02:22:54;;;;;;;6.18;3.30;;;;;;;;;;21169414;28;20081;-54
2022/01/29 02:32:57;;;;;;;8.27;3.00;;;;;;;;;;21169535;28;20540;-53
2022/01/29 02:43:09;;;;;;;5.03;2.73;;;;;;;;;;21168975;27;20141;-55
2022/01/29 02:53:11;;;;;;;4.85;2.78;;;;;;;;;;21166399;28;20464;-55
2022/01/29 03:03:19;;;;;;;8.45;2.78;;;;;;;;;;21167104;28;20056;-54
2022/01/29 03:13:20;;;;;;;5.78;3.00;;;;;;;;;;21165830;28;20093;-53
2022/01/29 03:23:26;;;;;;;3.47;2.20;;;;;;;;;;21165269;28;20050;-54
2022/01/29 03:33:32;;;;;;;5.28;2.50;;;;;;;;;;21164321;28;20059;-53
2022/01/29 03:43:41;;;;;;;5.28;2.40;;;;;;;;;;21164110;28;20055;-53
2022/01/29 03:53:43;;;;;;;5.15;2.65;;;;;;;;;;21163706;28;20054;-55
2022/01/29 04:03:45;;;;;;;6.45;2.92;;;;;;;;;;21163105;28;20048;-56
2022/01/29 04:13:49;;;;;;;5.93;3.50;;;;;;;;;;21162843;28;20122;-56
2022/01/29 04:23:52;;;;;;;4.88;2.88;;;;;;;;;;21162403;28;20070;-53
2022/01/29 04:33:55;;;;;;;4.70;2.72;;;;;;;;;;21161810;28;20043;-57
2022/01/29 04:43:58;;;;;;;3.80;2.30;;;;;;;;;;21166553;28;20079;-53
2022/01/29 04:54:00;;;;;;;4.07;2.47;;;;;;;;;;21177299;28;20399;-57
2022/01/29 05:04:02;;;;;;;5.18;3.15;;;;;;;;;;21176760;27;20120;-56
2022/01/29 05:14:09;;;;;;;5.20;2.33;;;;;;;;;;21175881;28;20125;-56
2022/01/29 05:34:31;;;;;;;5.93;2.95;;;;;;;;;;21175131;28;20039;-56
2022/01/29 05:44:38;;;;;;;4.80;2.55;;;;;;;;;;21173654;28;20058;-53
2022/01/29 05:55:00;;;;;;;3.92;2.10;;;;;;;;;;21173368;28;20055;-53
2022/01/29 06:05:21;;;;;;;6.43;2.70;;;;;;;;;;21172238;27;20055;-54
2022/01/29 06:15:48;;;;;;;3.88;2.40;;;;;;;;;;21170882;28;20063;-54
2022/01/29 06:25:50;;;;;;;6.10;2.50;;;;;;;;;;21170041;28;20051;-53
2022/01/29 06:35:57;;;;;;;5.00;2.67;;;;;;;;;;21169578;28;20048;-54
2022/01/29 06:46:06;;;;;;;3.22;1.65;;;;;;;;;;21168594;28;20048;-54
2022/01/29 06:56:11;;;;;;;5.97;2.10;;;;;;;;;;21168727;28;20423;-55
2022/01/29 07:06:13;;;;;;;3.60;1.98;;;;;;;;;;21166404;28;20056;-54
2022/01/29 07:16:16;;;;;;;4.30;2.45;;;;;;;;;;21166123;28;20046;-57
2022/01/29 07:26:17;;;;;;;5.43;2.50;;;;;;;;;;21165856;28;20568;-59
2022/01/29 07:36:20;;;;;;;8.10;2.88;;;;;;;;;;21165402;28;20040;-57
2022/01/29 07:46:22;;;;;;;5.55;2.72;;;;;;;;;;21164651;28;20483;-56
2022/01/29 07:56:25;;;;;;;5.77;2.67;;;;;;;;;;21163776;28;20515;-56
2022/01/29 08:06:29;;;;;;;6.90;2.50;;;;;;;;;;21161943;28;20047;-54
2022/01/29 08:16:31;;;;;;;5.55;2.53;;;;;;;;;;21166108;28;20051;-57
2022/01/29 08:26:33;;;;;;;9.32;3.17;;;;;;;;;;21179655;28;20100;-56
2022/01/29 08:36:36;;;;;;;8.57;3.55;;;;;;;;;;21179250;28;20475;-55
2022/01/29 08:46:39;;;;;;;6.60;3.67;;;;;;;;;;21178276;28;20380;-55
2022/01/29 08:56:40;;;;;;;5.78;3.17;;;;;;;;;;21177608;28;20043;-54
2022/01/29 09:06:43;;;;;;;3.42;2.15;;;;;;;;;;21176922;28;20553;-56
2022/01/29 09:16:46;;;;;;;4.10;2.78;;;;;;;;;;21175043;28;20093;-54
2022/01/29 09:26:48;;;;;;;7.65;3.75;;;;;;;;;;21174188;28;20059;-53
2022/01/29 09:36:51;;;;;;;5.55;3.08;;;;;;;;;;21172864;28;20213;-53
2022/01/29 09:46:53;;;;;;;6.50;3.78;;;;;;;;;;21172830;28;20063;-53
2022/01/29 09:56:55;;;;;;;9.05;3.30;;;;;;;;;;21172809;27;20036;-57
2022/01/29 10:07:16;;;;;;;11.82;4.32;;;;;;;;;;21171040;28;20143;-52
2022/01/29 10:17:36;;;;;;;11.88;4.43;;;;;;;;;;21169437;28;20472;-53
2022/01/29 10:27:39;;;;;;;8.65;3.85;;;;;;;;;;21169464;28;20043;-53
2022/01/29 10:37:40;;;;;;;9.75;4.90;;;;;;;;;;21168973;28;20082;-55
2022/01/29 10:47:55;;;;;;;4.38;2.42;;;;;;;;;;21166936;28;20078;-57
2022/01/29 10:57:57;;;;;;;6.38;2.45;;;;;;;;;;21167394;28;20151;-56
2022/01/29 11:08:01;;;;;;;5.88;2.30;;;;;;;;;;21128824;28;20484;-56
2022/01/29 11:18:03;;;;;;;4.45;2.88;;;;;;;;;;21081030;28;20060;-55
2022/01/29 11:28:15;;;;;;;3.70;2.30;;;;;;;;;;21081934;28;20101;-55
2022/01/29 11:38:33;;;;;;;5.38;2.25;;;;;;;;;;21138263;28;20631;-60
2022/01/29 11:48:38;;;;;;;5.22;2.00;;;;;;;;;;21164054;28;20381;-58
2022/01/29 11:58:40;;;;;;;3.13;1.50;;;;;;;;;;21162262;28;20422;-54
2022/01/29 12:09:07;;;;;;;4.00;1.52;;;;;;;;;;21162018;28;20051;-54
2022/01/29 12:19:29;;;;;;;3.95;1.70;;;;;;;;;;20902321;28;20071;-54
2022/01/29 12:29:31;;;;;;;2.95;1.60;;;;;;;;;;20885440;28;20463;-55
2022/01/29 12:39:33;;;;;;;4.15;1.85;;;;;;;;;;20902240;28;20557;-55
2022/01/29 12:49:41;;;;;;;2.70;1.85;;;;;;;;;;20941936;28;20047;-55
2022/01/29 12:59:43;;;;;;;2.22;1.50;;;;;;;;;;21074852;28;20090;-53
2022/01/29 13:09:45;;;;;;;2.42;1.15;;;;;;;;;;21087861;28;20055;-54
2022/01/29 13:19:49;;;;;;;2.95;1.20;;;;;;;;;;21090365;28;20101;-57
2022/01/29 13:29:56;;;;;;;1.30;0.77;;;;;;;;;;21089995;28;20051;-56
2022/01/29 13:39:59;;;;;;;3.08;1.50;;;;;;;;;;21088980;28;20074;-53
2022/01/29 13:50:19;;;;;;;2.63;1.17;;;;;;;;;;21088455;28;20055;-54
2022/01/29 14:00:22;;;;;;;4.03;1.98;;;;;;;;;;21087675;28;20146;-53
2022/01/29 14:10:23;;;;;;;2.58;1.20;;;;;;;;;;21085243;28;20047;-55
2022/01/29 14:20:26;;;;;;;2.70;1.40;;;;;;;;;;21085737;28;20162;-55
2022/01/29 14:30:28;;;;;;;5.93;1.70;;;;;;;;;;21085744;28;20408;-54
2022/01/29 14:40:30;;;;;;;2.25;1.10;;;;;;;;;;21084804;28;20047;-54
2022/01/29 14:50:32;;;;;;;3.47;1.20;;;;;;;;;;21084220;28;20055;-55
2022/01/29 15:00:33;;;;;;;2.97;1.30;;;;;;;;;;21082589;28;20047;-54
2022/01/29 15:10:35;;;;;;;3.42;1.98;;;;;;;;;;21082475;28;20504;-55
2022/01/29 15:20:38;;;;;;;2.35;1.60;;;;;;;;;;21081057;28;20048;-54
2022/01/29 15:30:41;;;;;;;2.22;1.15;;;;;;;;;;21079706;28;20040;-55
2022/01/29 15:40:51;;;;;;;4.88;2.40;;;;;;;;;;21079852;28;20055;-54
2022/01/29 15:50:55;;;;;;;6.13;2.40;;;;;;;;;;21078614;28;20054;-54
2022/01/29 16:00:59;;;;;;;2.65;1.08;;;;;;;;;;21078932;28;20506;-57
2022/01/29 16:11:01;;;;;;;2.67;1.40;;;;;;;;;;21078225;28;20039;-53
2022/01/29 16:21:04;;;;;;;4.65;2.28;;;;;;;;;;21078090;28;20081;-57
2022/01/29 16:31:07;;;;;;;2.88;1.30;;;;;;;;;;21077394;28;20093;-53
2022/01/29 16:41:09;;;;;;;3.78;1.45;;;;;;;;;;21085245;28;20047;-54
2022/01/29 16:51:11;;;;;;;5.75;2.15;;;;;;;;;;21094032;28;20040;-55
2022/01/29 17:01:13;;;;;;;5.85;2.28;;;;;;;;;;21090835;28;20056;-54
2022/01/29 17:11:15;;;;;;;5.28;2.00;;;;;;;;;;21091716;28;20055;-53
2022/01/29 17:21:18;;;;;;;4.57;2.88;;;;;;;;;;21090321;28;20113;-53
2022/01/29 17:31:20;;;;;;;4.95;1.90;;;;;;;;;;21089794;28;20069;-55
2022/01/29 17:41:23;;;;;;;4.20;2.25;;;;;;;;;;21089506;28;20052;-56
2022/01/29 17:51:25;;;;;;;8.10;5.05;;;;;;;;;;21087966;28;20601;-55
2022/01/29 18:01:28;;;;;;;9.80;5.07;;;;;;;;;;21087176;28;20094;-54
2022/01/29 18:11:30;;;;;;;9.80;5.45;;;;;;;;;;21086186;28;20089;-56
2022/01/29 18:21:32;;;;;;;31.85;17.95;;;;;;;;;;21085183;28;20064;-57
2022/01/29 18:31:34;;;;;;;15.52;6.30;;;;;;;;;;21084442;28;20051;-56
2022/01/29 18:41:36;;;;;;;17.83;8.45;;;;;;;;;;21084136;28;20055;-55
2022/01/29 18:51:38;;;;;;;17.80;7.20;;;;;;;;;;21083378;28;20051;-54
2022/01/29 19:01:40;;;;;;;10.90;4.97;;;;;;;;;;21081363;28;20488;-56
2022/01/29 19:11:41;;;;;;;9.95;4.40;;;;;;;;;;21082173;28;20109;-57
2022/01/29 19:21:44;;;;;;;7.63;2.80;;;;;;;;;;21080915;28;20044;-54
2022/01/29 19:31:46;;;;;;;5.95;2.78;;;;;;;;;;21080111;28;20143;-54
2022/01/29 19:41:47;;;;;;;9.60;3.88;;;;;;;;;;21079411;28;20105;-58
2022/01/29 19:51:50;;;;;;;10.13;5.05;;;;;;;;;;21079579;28;20089;-55
2022/01/29 20:01:56;;;;;;;6.40;3.83;;;;;;;;;;21078910;28;20056;-53
2022/01/29 20:11:58;;;;;;;5.68;3.47;;;;;;;;;;21078736;28;20054;-56
2022/01/29 20:22:00;;;;;;;14.65;6.30;;;;;;;;;;21078674;28;20055;-54
2022/01/29 20:32:02;;;;;;;9.52;4.70;;;;;;;;;;21076004;28;20055;-54
2022/01/29 20:42:06;;;;;;;7.50;4.18;;;;;;;;;;21077341;28;20453;-55
2022/01/29 20:52:07;;;;;;;6.85;4.10;;;;;;;;;;21077741;28;20044;-53
2022/01/29 21:02:10;;;;;;;11.15;5.38;;;;;;;;;;21076252;28;20173;-53
2022/01/29 21:12:17;;;;;;;7.65;4.25;;;;;;;;;;21075939;28;20052;-54
2022/01/29 21:22:19;;;;;;;11.10;4.18;;;;;;;;;;21076287;28;20523;-56
2022/01/29 21:32:21;;;;;;;16.95;8.88;;;;;;;;;;21088136;28;20056;-55
2022/01/29 21:42:23;;;;;;;15.75;7.60;;;;;;;;;;21090068;28;20380;-54
2022/01/29 21:52:25;;;;;;;8.70;6.15;;;;;;;;;;21089793;28;20464;-56
2022/01/29 22:02:28;;;;;;;12.20;6.65;;;;;;;;;;21086875;28;20052;-56
2022/01/29 22:12:29;;;;;;;8.48;5.05;;;;;;;;;;21087734;28;20064;-58
2022/01/29 22:22:31;;;;;;;14.25;9.35;;;;;;;;;;21086716;28;20134;-55
2022/01/29 22:32:33;;;;;;;10.80;5.85;;;;;;;;;;21085619;28;20101;-57
2022/01/29 22:42:35;;;;;;;12.30;5.40;;;;;;;;;;21085326;28;20056;-55
2022/01/29 22:52:37;;;;;;;48.80;20.10;;;;;;;;;;21085123;28;20120;-56
2022/01/29 23:02:39;;;;;;;14.25;8.20;;;;;;;;;;21083498;28;20087;-54
2022/01/29 23:23:07;;;;;;;8.27;4.63;;;;;;;;;;21081442;28;20442;-55
2022/01/29 23:33:35;;;;;;;11.23;4.75;;;;;;;;;;21080934;28;20076;-54
2022/01/29 23:43:50;;;;;;;10.37;5.23;;;;;;;;;;21080110;28;20051;-53
2022/01/29 23:53:53;;;;;;;9.23;4.13;;;;;;;;;;21080274;28;20075;-55
